Latest Weather Observations for Beaudesert AWS

IDQ60801

Issued at 10:02 am EST Thursday 23 February 2017 (issued every 30 minutes, with the page automatically refreshed every 10 minutes)

About weather observations | Map of weather stations | Latest weather observations for QLD | Other Formats
Station Details ID: 040983 Name: BEAUDESERT DRUMLEY STREET Lat: -27.97 Lon: 152.99 Height: 47.81 m
Data from the previous 72 hours. | See also: Recent months at Beaudesert AWS
Date/Time
EST
Temp
°C
App
Temp
°C
Dew
Point
°C
Rel
Hum
%
Delta-T
°C
Wind Press
QNH
hPa
Press
MSL
hPa
Rain since
9am
mm
Dir  Spd
km/h
Gust
km/h
Spd
kts
Gust
kts
23/10:00am 28.1 28.5 15.4 46 7.8 SE 7 17 4 9 1019.4 1019.2 0.0
23/09:30am 27.1 26.8 14.5 46 7.6 SE 9 19 5 10 1019.7 1019.5 0.0
23/09:00am 26.8 26.7 13.9 45 7.7 E 7 15 4 8 1019.7 1019.5 0.0
23/08:30am 25.2 25.0 14.6 51 6.3 SSE 9 13 5 7 1019.7 1019.5 0.0
23/08:00am 23.9 25.7 16.4 63 4.6 WSW 2 4 1 2 1019.6 1019.4 0.0
23/07:30am 21.9 23.7 16.4 71 3.3 W 2 6 1 3 1019.6 1019.4 0.0
23/07:00am 20.2 22.0 16.4 79 2.3 WSW 2 6 1 3 1019.4 1019.2 0.0
23/06:30am 18.6 20.5 15.8 84 1.7 CALM 0 0 0 0 1019.1 1018.9 0.0
23/06:00am 17.8 19.7 15.8 88 1.2 CALM 0 0 0 0 1018.9 1018.7 0.0
23/05:30am 18.6 20.5 15.8 84 1.7 CALM 0 0 0 0 1018.5 1018.3 0.0
23/05:00am 19.1 21.2 16.3 84 1.7 CALM 0 2 0 1 1018.5 1018.3 0.0
23/04:30am 18.9 20.8 15.8 82 1.8 CALM 0 0 0 0 1018.3 1018.1 0.0
23/04:00am 20.0 22.0 16.0 78 2.4 CALM 0 0 0 0 1018.2 1018.0 0.0
23/03:30am 19.8 21.8 16.1 79 2.2 CALM 0 0 0 0 1018.3 1018.1 0.0
23/03:00am 19.6 21.0 16.3 81 2.0 ESE 4 7 2 4 1018.5 1018.3 0.0
23/02:30am 18.8 20.4 16.0 84 1.7 SSW 2 4 1 2 1018.5 1018.3 0.0
23/02:00am 19.5 21.4 15.8 79 2.2 CALM 0 0 0 0 1018.8 1018.6 0.0
23/01:30am 19.4 21.4 15.9 80 2.1 CALM 0 0 0 0 1018.9 1018.7 0.0
23/01:00am 19.7 21.7 16.0 79 2.2 CALM 0 0 0 0 1019.1 1018.9 0.0
23/12:30am 20.3 22.2 15.7 75 2.7 CALM 0 0 0 0 1019.3 1019.1 0.0
23/12:00am 20.2 22.2 16.0 77 2.5 CALM 0 0 0 0 1019.5 1019.3 0.0
 
Date/Time
EST
Temp
°C
App
Temp
°C
Dew
Point
°C
Rel
Hum
%
Delta-T
°C
Wind Press
QNH
hPa
Press
MSL
hPa
Rain since
9am
mm
Dir  Spd
km/h
Gust
km/h
Spd
kts
Gust
kts
22/11:30pm 19.7 21.4 16.2 80 2.1 SSE 2 4 1 2 1019.8 1019.6 0.0
22/11:00pm 18.7 20.0 15.2 80 2.0 S 2 4 1 2 1019.9 1019.7 0.0
22/10:30pm 19.4 20.4 15.3 77 2.4 S 4 4 2 2 1020.0 1019.8 0.0
22/10:00pm 20.2 21.8 15.0 72 3.1 CALM 0 2 0 1 1020.1 1019.9 0.0
22/09:30pm 22.0 23.1 15.6 67 3.8 SSE 4 9 2 5 1020.1 1019.9 0.0
22/09:00pm 22.4 22.8 15.3 64 4.2 SE 7 17 4 9 1020.0 1019.8 0.0
22/08:30pm 22.6 23.0 15.2 63 4.4 ESE 7 13 4 7 1019.6 1019.4 0.0
22/08:00pm 22.9 23.4 15.5 63 4.4 ESE 7 13 4 7 1019.2 1019.0 0.0
22/07:30pm 23.4 23.2 15.7 62 4.6 ESE 11 20 6 11 1018.6 1018.4 0.0
22/07:00pm 24.0 23.5 16.0 61 4.9 E 13 20 7 11 1018.3 1018.1 0.0
22/06:30pm 24.8 24.8 16.2 58 5.3 ESE 11 17 6 9 1018.0 1017.8 0.0
22/06:00pm 25.9 25.9 16.2 55 6.0 ESE 11 17 6 9 1017.6 1017.4 0.0
22/05:30pm 26.6 26.1 15.9 51 6.6 ESE 13 24 7 13 1017.3 1017.1 0.0
22/05:00pm 27.3 26.8 16.0 50 6.9 SE 13 24 7 13 1016.9 1016.7 0.0
22/04:30pm 27.8 26.9 15.8 48 7.4 ESE 15 22 8 12 1016.8 1016.6 0.0
22/04:00pm 28.2 26.6 16.1 47 7.5 SE 19 30 10 16 1016.7 1016.5 0.0
22/03:30pm 28.6 27.7 15.8 45 7.9 SE 15 24 8 13 1016.6 1016.4 0.0
22/03:00pm 29.8 29.1 15.5 42 8.8 SSE 13 24 7 13 1016.4 1016.2 0.0
22/02:30pm 29.3 28.6 15.4 42 8.5 SE 13 22 7 12 1016.9 1016.7 0.0
22/02:00pm 28.9 28.1 15.1 43 8.4 ESE 13 24 7 13 1017.2 1017.0 0.0
22/01:30pm 30.1 30.0 15.0 40 9.3 SE 9 19 5 10 1017.4 1017.2 0.0
22/01:00pm 29.4 29.5 14.4 40 9.1 SSE 7 17 4 9 1017.8 1017.6 0.0
22/12:30pm 29.8 29.8 15.1 40 9.0 SE 9 17 5 9 1018.0 1017.8 0.0
22/12:00pm 29.5 29.1 15.2 41 8.8 SSE 11 20 6 11 1018.4 1018.2 0.0
22/11:30am 30.5 30.0 15.8 41 9.1 E 13 19 7 10 1018.6 1018.4 0.0
22/11:00am 29.5 28.4 15.2 41 8.8 SE 15 28 8 15 1019.1 1018.9 0.0
22/10:30am 29.5 29.8 17.0 47 7.9 ESE 11 22 6 12 1019.4 1019.2 0.0
22/10:00am 28.0 27.5 16.9 51 6.9 SE 15 22 8 12 1019.8 1019.6 0.0
22/09:30am 28.2 27.5 16.5 49 7.3 ESE 15 20 8 11 1020.0 1019.8 0.0
22/09:00am 27.1 26.6 15.8 50 6.9 SE 13 24 7 13 1020.0 1019.8 0.0
22/08:30am 27.1 27.9 17.3 55 6.2 SSE 9 15 5 8 1020.1 1019.9 0.0
22/08:00am 24.2 26.5 18.6 71 3.5 WSW 4 6 2 3 1020.0 1019.8 0.0
22/07:30am 22.9 25.3 18.7 77 2.7 S 4 6 2 3 1019.9 1019.7 0.0
22/07:00am 20.7 23.6 18.1 85 1.6 CALM 0 0 0 0 1020.0 1019.8 0.0
22/06:30am 20.0 22.6 17.6 86 1.5 CALM 0 2 0 1 1019.6 1019.4 0.0
22/06:00am 19.4 22.0 17.4 88 1.2 CALM 0 0 0 0 1019.3 1019.1 0.0
22/05:30am 19.5 22.1 17.5 88 1.2 CALM 0 0 0 0 1018.7 1018.5 0.0
22/05:00am 19.2 21.7 17.2 88 1.2 CALM 0 0 0 0 1018.5 1018.3 0.0
22/04:30am 19.2 21.6 17.0 87 1.3 CALM 0 0 0 0 1018.5 1018.3 0.0
22/04:00am 19.5 21.8 16.7 84 1.7 CALM 0 0 0 0 1018.1 1017.9 0.0
22/03:30am 19.7 21.7 16.9 84 1.7 SSE 2 4 1 2 1018.0 1017.8 0.0
22/03:00am 19.9 21.5 16.9 83 1.8 SSE 4 6 2 3 1018.0 1017.8 0.0
22/02:30am 19.7 21.7 16.9 84 1.7 SSE 2 4 1 2 1018.0 1017.8 0.0
22/02:00am 19.6 21.9 16.8 84 1.7 CALM 0 0 0 0 1018.2 1018.0 0.0
22/01:30am 19.7 21.6 16.7 83 1.8 SSE 2 4 1 2 1018.4 1018.2 0.0
22/01:00am 19.7 21.6 16.7 83 1.8 S 2 4 1 2 1018.4 1018.2 0.0
22/12:30am 20.0 21.9 16.6 81 2.1 S 2 4 1 2 1018.5 1018.3 0.0
22/12:00am 20.2 21.8 16.8 81 2.1 S 4 6 2 3 1018.7 1018.5 0.0
 
Date/Time
EST
Temp
°C
App
Temp
°C
Dew
Point
°C
Rel
Hum
%
Delta-T
°C
Wind Press
QNH
hPa
Press
MSL
hPa
Rain since
9am
mm
Dir  Spd
km/h
Gust
km/h
Spd
kts
Gust
kts
21/11:30pm 20.9 23.3 16.9 78 2.4 CALM 0 0 0 0 1018.8 1018.6 0.0
21/11:00pm 21.7 23.8 17.1 75 2.8 SSW 2 6 1 3 1019.0 1018.8 0.0
21/10:30pm 21.8 23.3 16.7 73 3.1 SE 4 4 2 2 1018.8 1018.6 0.0
21/10:00pm 22.5 24.3 16.5 69 3.6 SSE 2 4 1 2 1019.5 1019.3 0.0
21/09:30pm 23.6 24.8 16.9 66 4.1 ESE 6 11 3 6 1019.3 1019.1 0.0
21/09:00pm 24.0 24.6 16.8 64 4.4 ESE 9 13 5 7 1019.2 1019.0 0.0
21/08:30pm 24.0 24.5 16.5 63 4.6 ESE 9 15 5 8 1018.9 1018.7 0.0
21/08:00pm 24.3 25.1 16.3 61 4.9 ESE 7 13 4 7 1018.6 1018.4 0.0
21/07:30pm 24.8 24.8 16.2 58 5.3 E 11 22 6 12 1018.3 1018.1 0.0
21/07:00pm 25.1 24.4 16.3 58 5.4 ESE 15 32 8 17 1018.1 1017.9 0.0
21/06:30pm 25.3 25.2 17.0 60 5.2 ESE 13 22 7 12 1017.6 1017.4 0.0
21/06:00pm 26.0 26.2 17.6 60 5.3 ESE 13 22 7 12 1017.2 1017.0 0.0
21/05:30pm 26.5 25.6 18.1 60 5.3 E 20 32 11 17 1016.5 1016.3 0.0
21/05:00pm 27.0 26.2 18.0 58 5.7 ESE 19 32 10 17 1016.2 1016.0 0.0
21/04:30pm 27.4 26.9 17.8 55 6.1 ESE 17 24 9 13 1015.9 1015.7 0.0
21/04:00pm 27.8 27.7 17.9 54 6.3 E 15 24 8 13 1015.6 1015.4 0.0
21/03:30pm 28.7 28.2 17.9 52 6.9 ESE 17 26 9 14 1015.5 1015.3 0.0
21/03:00pm 29.5 29.3 17.7 49 7.5 E 15 32 8 17 1015.4 1015.2 0.0
21/02:30pm 29.2 28.7 17.7 50 7.3 E 17 26 9 14 1015.4 1015.2 0.0
21/02:00pm 29.4 30.5 18.8 53 6.8 E 11 19 6 10 1015.3 1015.1 0.0
21/01:30pm 31.7 32.2 19.3 47 8.1 ENE 15 26 8 14 1015.3 1015.1 0.0
21/01:00pm 29.8 30.1 17.9 48 7.6 E 13 20 7 11 1015.6 1015.4 0.0
21/12:30pm 30.2 31.3 18.0 48 7.8 E 9 15 5 8 1015.6 1015.4 0.0
21/12:00pm 30.6 32.4 17.3 45 8.4 ESE 4 7 2 4 1016.0 1015.8 0.0
21/11:30am 28.9 30.2 17.1 49 7.4 ESE 6 9 3 5 1016.4 1016.2 0.0
21/11:00am 30.0 31.7 18.1 49 7.6 NW 6 11 3 6 1016.7 1016.5 0.0
21/10:30am 28.3 29.8 18.1 54 6.5 S 7 13 4 7 1017.3 1017.1 0.0
21/10:00am 28.3 29.8 19.0 57 6.0 S 9 15 5 8 1017.4 1017.2 0.0
21/09:30am 27.6 30.4 19.7 62 5.1 SSW 4 9 2 5 1017.7 1017.5 0.0
21/09:00am 27.1 28.4 19.2 62 5.1 SW 11 17 6 9 1017.8 1017.6 0.0
21/08:30am 26.3 28.9 19.2 65 4.6 S 4 7 2 4 1017.6 1017.4 0.0
21/08:00am 24.9 28.1 18.8 69 3.9 CALM 0 4 0 2 1017.4 1017.2 0.0
21/07:30am 23.2 25.8 18.5 75 3.0 S 2 2 1 1 1017.4 1017.2 0.0
21/07:00am 21.9 24.7 17.9 78 2.5 CALM 0 2 0 1 1017.3 1017.1 0.0
21/06:30am 20.3 23.0 17.7 85 1.6 CALM 0 0 0 0 1016.7 1016.5 0.0
21/06:00am 19.0 21.5 17.3 90 1.0 CALM 0 0 0 0 1016.3 1016.1 0.0
21/05:30am 18.9 21.4 17.2 90 1.0 CALM 0 0 0 0 1015.8 1015.6 0.0
21/05:00am 19.3 21.4 17.3 88 1.2 SSW 2 4 1 2 1015.3 1015.1 0.0
21/04:30am 19.5 21.8 17.8 90 1.0 S 2 4 1 2 1015.0 1014.8 0.0
21/04:00am 19.3 21.5 17.4 89 1.2 S 2 4 1 2 1014.7 1014.5 0.0
21/03:30am 19.3 21.9 17.6 90 1.0 CALM 0 0 0 0 1014.4 1014.2 0.0
21/03:00am 20.3 23.2 18.1 87 1.4 CALM 0 2 0 1 1014.4 1014.2 0.0
21/02:30am 20.7 23.6 18.1 85 1.6 CALM 0 0 0 0 1014.3 1014.1 0.0
21/02:00am 20.6 23.5 18.2 86 1.5 CALM 0 0 0 0 1014.5 1014.3 0.0
21/01:30am 20.2 23.1 18.3 89 1.2 CALM 0 0 0 0 1014.6 1014.4 0.0
21/01:00am 19.1 21.7 17.6 91 0.9 CALM 0 0 0 0 1014.8 1014.6 0.0
21/12:30am 20.1 23.2 18.6 91 0.9 CALM 0 0 0 0 1015.0 1014.8 0.0
21/12:00am 20.1 23.0 18.1 88 1.2 CALM 0 0 0 0 1014.9 1014.7 0.0
 
Date/Time
EST
Temp
°C
App
Temp
°C
Dew
Point
°C
Rel
Hum
%
Delta-T
°C
Wind Press
QNH
hPa
Press
MSL
hPa
Rain since
9am
mm
Dir  Spd
km/h
Gust
km/h
Spd
kts
Gust
kts
20/11:30pm 20.5 23.5 18.4 88 1.3 CALM 0 0 0 0 1015.1 1014.9 0.0
20/11:00pm 20.4 23.1 17.8 85 1.6 CALM 0 0 0 0 1015.2 1015.0 0.0
20/10:30pm 21.4 24.4 18.4 83 1.9 CALM 0 0 0 0 1014.9 1014.7 0.0
20/10:00pm 22.1 25.1 18.5 80 2.3 CALM 0 4 0 2 1014.7 1014.5 0.0
20/09:30pm 22.8 25.5 18.6 77 2.6 SW 2 4 1 2 1014.8 1014.6 0.0
20/09:00pm 24.1 26.7 19.2 74 3.1 SE 4 7 2 4 1014.4 1014.2 0.0
20/08:30pm 24.3 25.8 18.9 72 3.4 E 9 19 5 10 1013.8 1013.6 0.0
20/08:00pm 24.5 25.5 18.7 70 3.7 E 11 19 6 10 1013.2 1013.0 0.0
20/07:30pm 25.0 25.1 17.5 63 4.7 E 13 20 7 11 1012.6 1012.3 0.0
20/07:00pm 25.2 25.7 17.4 62 4.9 E 11 17 6 9 1012.2 1011.9 0.0
20/06:30pm 25.7 26.8 17.9 62 4.9 ENE 9 17 5 9 1011.7 1011.4 0.0
20/06:00pm 26.7 27.2 17.5 57 5.8 E 11 17 6 9 1011.0 1010.7 0.0
20/05:30pm 27.8 27.3 15.8 48 7.4 E 13 20 7 11 1010.6 1010.3 0.0
20/05:00pm 28.8 28.4 15.3 43 8.3 E 11 24 6 13 1009.9 1009.6 0.0
20/04:30pm 30.0 30.1 16.4 44 8.5 ENE 11 19 6 10 1009.4 1009.1 0.0
20/04:00pm 30.3 30.2 16.0 42 8.9 NE 11 19 6 10 1009.0 1008.7 0.0
20/03:30pm 30.3 29.3 15.6 41 9.1 NE 15 28 8 15 1009.1 1008.8 0.0
20/03:00pm 32.0 32.0 16.3 39 9.9 N 11 19 6 10 1008.9 1008.6 0.0
20/02:30pm 32.1 32.1 12.3 29 11.7 W 4 13 2 7 1008.8 1008.5 0.0
20/02:00pm 32.0 32.2 13.2 31 11.3 NNW 4 9 2 5 1009.1 1008.8 0.0
20/01:30pm 31.0 31.0 12.4 32 11.0 S 4 9 2 5 1009.3 1009.0 0.0
20/01:00pm 31.4 30.9 12.7 32 11.1 WNW 7 11 4 6 1009.6 1009.3 0.0
20/12:30pm 30.8 29.9 12.7 33 10.7 SSW 9 19 5 10 1010.0 1009.7 0.0
20/12:00pm 31.0 31.8 15.8 40 9.5 SSE 6 13 3 7 1010.3 1010.0 0.0
20/11:30am 30.4 30.7 16.0 41 9.0 WSW 9 17 5 9 1010.9 1010.6 0.0
20/11:00am 29.3 30.4 16.5 46 8.0 WSW 6 17 3 9 1011.3 1011.0 0.0
20/10:30am 28.5 28.6 15.4 45 8.0 SSW 9 19 5 10 1011.5 1011.2 0.0

Other Formats:

Comma delimited format used in spreadsheet applications
http://www.bom.gov.au/fwo/IDQ60801/IDQ60801.95575.axf

JavaScript Object Notation format (JSON) in row-major order
http://www.bom.gov.au/fwo/IDQ60801/IDQ60801.95575.json